Time;durP1;ratioP1;P1;durP2;ratioP2;P2;SDS_P1;SDS_P2;PMS_P1;PMS_P2;Temp;Humidity;BMP_temperature;BMP_pressure;BME280_temperature;BME280_humidity;BME280_pressure;Samples;Min_cycle;Max_cycle;Signal;HPM_P1;HPM_P2
2022/02/23 00:00:48;;;;;;;;;9.00;8.00;;;;;;;;5122283;28;9647;-83
2022/02/23 00:03:13;;;;;;;;;9.00;6.67;;;;;;;;5121256;28;11546;-84
2022/02/23 00:05:38;;;;;;;;;9.00;5.00;;;;;;;;5122022;28;9893;-84
2022/02/23 00:08:04;;;;;;;;;7.00;7.00;;;;;;;;5120833;28;9031;-83
2022/02/23 00:10:30;;;;;;;;;8.33;6.33;;;;;;;;5122562;28;8796;-83
2022/02/23 00:12:55;;;;;;;;;8.00;8.00;;;;;;;;5121701;28;11358;-84
2022/02/23 00:15:21;;;;;;;;;8.00;8.00;;;;;;;;5121416;28;10288;-83
2022/02/23 00:17:47;;;;;;;;;7.33;7.33;;;;;;;;5121029;28;8823;-83
2022/02/23 00:20:15;;;;;;;;;8.00;7.67;;;;;;;;5120540;28;12514;-86
2022/02/23 00:22:41;;;;;;;;;8.67;8.00;;;;;;;;5121080;28;11438;-86
2022/02/23 00:25:06;;;;;;;;;7.00;7.00;;;;;;;;5120937;28;12119;-86
2022/02/23 00:27:31;;;;;;;;;8.33;7.00;;;;;;;;5120991;28;10283;-86
2022/02/23 00:29:57;;;;;;;;;6.33;6.33;;;;;;;;5121894;28;8861;-85
2022/02/23 00:32:22;;;;;;;;;7.67;7.67;;;;;;;;5121318;28;11515;-86
2022/02/23 00:34:48;;;;;;;;;8.00;8.00;;;;;;;;5120819;28;11797;-86
2022/02/23 00:37:14;;;;;;;;;5.00;4.00;;;;;;;;5121098;28;11975;-86
2022/02/23 00:39:39;;;;;;;;;8.00;8.00;;;;;;;;5121377;28;8915;-86
2022/02/23 00:42:05;;;;;;;;;8.00;7.67;;;;;;;;5121642;28;8807;-85
2022/02/23 00:44:30;;;;;;;;;5.67;5.67;;;;;;;;5102870;28;9472;-86
2022/02/23 00:46:55;;;;;;;;;5.00;5.00;;;;;;;;5121665;28;10262;-86
2022/02/23 00:49:21;;;;;;;;;9.67;9.33;;;;;;;;5121384;28;9061;-85
2022/02/23 00:51:46;;;;;;;;;5.67;5.00;;;;;;;;5121231;28;11287;-86
2022/02/23 00:54:12;;;;;;;;;7.00;7.00;;;;;;;;5121358;28;12220;-86
2022/02/23 00:56:37;;;;;;;;;7.00;7.00;;;;;;;;5121333;28;10257;-85
2022/02/23 00:59:02;;;;;;;;;8.00;7.00;;;;;;;;5120997;28;8811;-85
2022/02/23 01:01:27;;;;;;;;;5.00;5.00;;;;;;;;5121037;28;8784;-85
2022/02/23 01:03:53;;;;;;;;;7.00;5.00;;;;;;;;5120499;28;8871;-85
2022/02/23 01:06:18;;;;;;;;;7.00;7.00;;;;;;;;5120336;28;8784;-85
2022/02/23 01:08:44;;;;;;;;;8.00;7.00;;;;;;;;5120628;28;8873;-85
2022/02/23 01:11:09;;;;;;;;;8.33;6.33;;;;;;;;5120188;28;8850;-86
2022/02/23 01:13:34;;;;;;;;;7.67;5.00;;;;;;;;5102857;28;12458;-85
2022/02/23 01:16:00;;;;;;;;;9.00;7.00;;;;;;;;5120899;28;12348;-85
2022/02/23 01:18:25;;;;;;;;;8.00;8.00;;;;;;;;5121030;28;10265;-85
2022/02/23 01:20:50;;;;;;;;;4.00;4.00;;;;;;;;5120551;28;8812;-85
2022/02/23 01:23:16;;;;;;;;;7.00;5.00;;;;;;;;5102219;28;11111;-85
2022/02/23 01:25:41;;;;;;;;;7.00;5.00;;;;;;;;5120790;28;10024;-85
2022/02/23 01:28:07;;;;;;;;;5.67;5.67;;;;;;;;5120659;28;8804;-84
2022/02/23 01:30:32;;;;;;;;;11.00;7.00;;;;;;;;5120447;28;11635;-85
2022/02/23 01:32:58;;;;;;;;;7.00;5.67;;;;;;;;5119793;28;22685;-85
2022/02/23 01:35:24;;;;;;;;;7.33;5.67;;;;;;;;5119612;28;21385;-86
2022/02/23 01:37:49;;;;;;;;;8.00;7.00;;;;;;;;5121094;28;8822;-85
2022/02/23 01:40:14;;;;;;;;;7.00;5.00;;;;;;;;5120988;28;12603;-86
2022/02/23 01:42:40;;;;;;;;;5.67;5.67;;;;;;;;5121235;28;8819;-85
2022/02/23 01:45:06;;;;;;;;;8.67;7.00;;;;;;;;5101700;28;13271;-85
2022/02/23 01:47:31;;;;;;;;;14.00;8.00;;;;;;;;5120426;28;11490;-85
2022/02/23 01:49:57;;;;;;;;;7.00;6.33;;;;;;;;5119782;28;21898;-85
2022/02/23 01:52:25;;;;;;;;;6.33;5.67;;;;;;;;5120877;28;21326;-85
2022/02/23 01:54:51;;;;;;;;;7.00;7.00;;;;;;;;5120972;28;11390;-85
2022/02/23 01:57:16;;;;;;;;;10.67;7.00;;;;;;;;5120250;27;12464;-84
2022/02/23 01:59:41;;;;;;;;;5.67;5.00;;;;;;;;5120357;28;16411;-85
2022/02/23 02:02:06;;;;;;;;;10.00;9.33;;;;;;;;5122941;28;21427;-85
2022/02/23 02:04:33;;;;;;;;;7.33;5.00;;;;;;;;5127105;28;21544;-85
2022/02/23 02:06:58;;;;;;;;;5.00;5.00;;;;;;;;5138227;28;21819;-85
2022/02/23 02:09:23;;;;;;;;;7.00;7.00;;;;;;;;5140261;28;8839;-85
2022/02/23 02:11:51;;;;;;;;;8.00;4.00;;;;;;;;5102230;28;10644;-84
2022/02/23 02:14:16;;;;;;;;;7.67;7.00;;;;;;;;5119491;28;8804;-84
2022/02/23 02:16:42;;;;;;;;;6.33;5.67;;;;;;;;5119287;28;10268;-85
2022/02/23 02:19:08;;;;;;;;;6.33;4.67;;;;;;;;5119094;28;12660;-84
2022/02/23 02:21:53;;;;;;;;;7.33;7.33;;;;;;;;5100664;28;10235;-85
2022/02/23 02:24:20;;;;;;;;;5.00;5.00;;;;;;;;5104592;28;11840;-84
2022/02/23 02:26:46;;;;;;;;;4.33;4.00;;;;;;;;5119143;28;11957;-84
2022/02/23 02:29:11;;;;;;;;;4.00;4.00;;;;;;;;5100135;28;10629;-85
2022/02/23 02:31:36;;;;;;;;;8.00;7.00;;;;;;;;5119321;28;8853;-84
2022/02/23 02:34:02;;;;;;;;;4.33;4.00;;;;;;;;5100101;28;11251;-83
2022/02/23 02:36:27;;;;;;;;;5.00;5.00;;;;;;;;5118310;28;10459;-84
2022/02/23 02:38:53;;;;;;;;;7.00;5.00;;;;;;;;5119215;28;10319;-82
2022/02/23 02:41:18;;;;;;;;;10.00;4.00;;;;;;;;5119414;28;8919;-84
2022/02/23 02:43:43;;;;;;;;;7.67;4.67;;;;;;;;5118666;28;21381;-84
2022/02/23 02:46:08;;;;;;;;;5.33;5.33;;;;;;;;5118691;28;21578;-84
2022/02/23 02:48:34;;;;;;;;;8.33;4.67;;;;;;;;5119371;28;11352;-84
2022/02/23 02:50:59;;;;;;;;;6.33;6.33;;;;;;;;5118726;28;11310;-85
2022/02/23 02:53:24;;;;;;;;;10.33;8.33;;;;;;;;5119176;28;11305;-83
2022/02/23 02:55:49;;;;;;;;;3.67;3.67;;;;;;;;5118784;28;21396;-83
2022/02/23 02:58:15;;;;;;;;;13.00;8.33;;;;;;;;5118602;28;21576;-83
2022/02/23 03:00:40;;;;;;;;;6.67;6.67;;;;;;;;5118455;28;21551;-84
2022/02/23 03:03:05;;;;;;;;;5.67;5.33;;;;;;;;5117955;28;21341;-83
2022/02/23 03:05:31;;;;;;;;;7.00;5.33;;;;;;;;5118290;28;11832;-84
2022/02/23 03:07:57;;;;;;;;;2.33;2.33;;;;;;;;5117863;27;8952;-84
2022/02/23 03:10:22;;;;;;;;;3.67;3.67;;;;;;;;5122865;28;10519;-84
2022/02/23 03:12:47;;;;;;;;;9.67;7.00;;;;;;;;5122758;28;11316;-84
2022/02/23 03:15:13;;;;;;;;;8.00;4.33;;;;;;;;5122552;28;11618;-85
2022/02/23 03:17:38;;;;;;;;;6.00;6.00;;;;;;;;5122640;28;11568;-84
2022/02/23 03:20:04;;;;;;;;;2.33;2.33;;;;;;;;5103825;28;13574;-83
2022/02/23 03:22:29;;;;;;;;;6.00;4.00;;;;;;;;5122250;28;11295;-84
2022/02/23 03:24:54;;;;;;;;;7.00;6.00;;;;;;;;5121932;28;11939;-84
2022/02/23 03:27:20;;;;;;;;;5.00;5.00;;;;;;;;5122543;28;9143;-84
2022/02/23 03:29:48;;;;;;;;;6.33;6.00;;;;;;;;5103673;28;9397;-84
2022/02/23 03:32:13;;;;;;;;;6.67;6.00;;;;;;;;5122429;28;10535;-84
2022/02/23 03:34:39;;;;;;;;;3.67;3.00;;;;;;;;5121985;28;9543;-84
2022/02/23 03:37:04;;;;;;;;;5.33;3.00;;;;;;;;5122351;28;8830;-84
2022/02/23 03:39:29;;;;;;;;;0.67;0.67;;;;;;;;5121800;28;9632;-85
2022/02/23 03:41:55;;;;;;;;;6.33;6.33;;;;;;;;5121926;28;11854;-82
2022/02/23 03:44:20;;;;;;;;;3.00;3.00;;;;;;;;5121872;28;10841;-84
2022/02/23 03:46:47;;;;;;;;;4.00;4.00;;;;;;;;5121994;28;11546;-84
2022/02/23 03:49:13;;;;;;;;;9.00;6.00;;;;;;;;5122423;28;8776;-84
2022/02/23 03:51:38;;;;;;;;;10.00;7.00;;;;;;;;5122010;28;8851;-84
2022/02/23 03:54:03;;;;;;;;;6.00;6.00;;;;;;;;5121610;28;21457;-84
2022/02/23 03:56:42;;;;;;;;;4.00;4.00;;;;;;;;5121684;28;21397;-84
2022/02/23 03:59:08;;;;;;;;;9.00;6.00;;;;;;;;5122282;28;9766;-87
2022/02/23 04:01:34;;;;;;;;;6.00;3.00;;;;;;;;5122046;28;8994;-85
2022/02/23 04:04:00;;;;;;;;;5.33;5.33;;;;;;;;5121617;28;8867;-86
2022/02/23 04:06:26;;;;;;;;;6.00;5.00;;;;;;;;5120880;28;11626;-81
2022/02/23 04:08:54;;;;;;;;;6.33;6.00;;;;;;;;5102931;28;12280;-83
2022/02/23 04:11:20;;;;;;;;;8.33;4.67;;;;;;;;5120976;28;9553;-77
2022/02/23 04:13:45;;;;;;;;;6.00;3.67;;;;;;;;5121094;28;11349;-80
2022/02/23 04:16:10;;;;;;;;;4.00;3.00;;;;;;;;5120926;28;10536;-79
2022/02/23 04:18:36;;;;;;;;;4.67;4.67;;;;;;;;5120602;28;11874;-80
2022/02/23 04:21:04;;;;;;;;;4.00;3.00;;;;;;;;5122112;27;10350;-80
2022/02/23 04:23:29;;;;;;;;;9.00;5.33;;;;;;;;5130679;27;10361;-80
2022/02/23 04:25:54;;;;;;;;;4.00;4.00;;;;;;;;5129614;27;11477;-81
2022/02/23 04:28:21;;;;;;;;;4.00;4.00;;;;;;;;5131421;27;11308;-80
2022/02/23 04:30:46;;;;;;;;;3.33;3.33;;;;;;;;5135268;27;8792;-79
2022/02/23 04:33:11;;;;;;;;;4.00;3.67;;;;;;;;5139588;27;11294;-76
2022/02/23 04:35:37;;;;;;;;;4.00;4.00;;;;;;;;5139706;27;11334;-77
2022/02/23 04:38:02;;;;;;;;;8.33;4.67;;;;;;;;5139344;27;8814;-81
2022/02/23 04:40:27;;;;;;;;;4.00;4.00;;;;;;;;5121049;27;13204;-81
2022/02/23 04:42:52;;;;;;;;;4.67;4.00;;;;;;;;5140044;27;12572;-79
2022/02/23 04:45:18;;;;;;;;;4.00;4.00;;;;;;;;5140119;27;8901;-79
2022/02/23 04:47:43;;;;;;;;;6.67;3.67;;;;;;;;5139808;27;8952;-78
2022/02/23 04:50:08;;;;;;;;;7.00;4.00;;;;;;;;5139882;27;11298;-78
2022/02/23 04:52:34;;;;;;;;;5.33;4.00;;;;;;;;5140006;27;11581;-77
2022/02/23 04:54:59;;;;;;;;;5.00;3.00;;;;;;;;5139600;27;9039;-77
2022/02/23 04:57:24;;;;;;;;;6.00;3.00;;;;;;;;5139780;27;9446;-80
2022/02/23 04:59:50;;;;;;;;;4.00;4.00;;;;;;;;5139359;27;8794;-83
2022/02/23 05:02:15;;;;;;;;;3.00;3.00;;;;;;;;5139477;27;9208;-82
2022/02/23 05:04:41;;;;;;;;;6.00;4.00;;;;;;;;5139430;27;8805;-79
2022/02/23 05:07:06;;;;;;;;;6.00;3.33;;;;;;;;5139650;27;8975;-75
2022/02/23 05:09:32;;;;;;;;;6.00;4.00;;;;;;;;5140605;27;9033;-76
2022/02/23 05:11:57;;;;;;;;;7.00;4.00;;;;;;;;5140081;27;9502;-74
2022/02/23 05:14:22;;;;;;;;;3.33;3.33;;;;;;;;5140066;27;8844;-76
2022/02/23 05:16:48;;;;;;;;;4.00;4.00;;;;;;;;5140586;27;11730;-78
2022/02/23 05:19:15;;;;;;;;;4.00;4.00;;;;;;;;5140842;27;12454;-77
2022/02/23 05:21:41;;;;;;;;;4.00;2.33;;;;;;;;5140749;27;8770;-78
2022/02/23 05:24:06;;;;;;;;;8.25;5.50;;;;;;;;5138378;27;8817;-80
2022/02/23 05:26:31;;;;;;;;;9.00;3.00;;;;;;;;5119986;28;11359;-79
2022/02/23 05:28:57;;;;;;;;;7.00;4.00;;;;;;;;5119577;28;11748;-80
2022/02/23 05:31:22;;;;;;;;;5.00;3.00;;;;;;;;5118776;28;9857;-79
2022/02/23 05:33:47;;;;;;;;;8.50;4.00;;;;;;;;5120165;28;8780;-79
2022/02/23 05:36:12;;;;;;;;;7.00;6.00;;;;;;;;5120093;28;11923;-79
2022/02/23 05:38:38;;;;;;;;;6.00;4.00;;;;;;;;5120082;28;10397;-79
2022/02/23 05:41:03;;;;;;;;;9.00;8.00;;;;;;;;5123879;27;9144;-77
2022/02/23 05:43:29;;;;;;;;;6.00;5.50;;;;;;;;5131307;27;8935;-77
2022/02/23 05:45:54;;;;;;;;;6.00;1.00;;;;;;;;5130132;27;11453;-77
2022/02/23 05:48:20;;;;;;;;;5.50;5.50;;;;;;;;5129717;27;8826;-77
2022/02/23 05:50:45;;;;;;;;;7.50;4.00;;;;;;;;5128324;27;11339;-78
2022/02/23 05:53:10;;;;;;;;;4.00;4.00;;;;;;;;5130713;27;11315;-75
2022/02/23 05:55:36;;;;;;;;;6.00;4.00;;;;;;;;5103726;28;9148;-77
2022/02/23 05:58:01;;;;;;;;;3.00;3.00;;;;;;;;5119520;28;8923;-78
2022/02/23 06:00:26;;;;;;;;;3.00;1.00;;;;;;;;5119894;28;8780;-78
2022/02/23 06:02:53;;;;;;;;;8.00;6.00;;;;;;;;5119755;28;8899;-78
2022/02/23 06:05:19;;;;;;;;;3.00;3.00;;;;;;;;5120214;28;8768;-78
2022/02/23 06:07:45;;;;;;;;;3.00;3.00;;;;;;;;5120064;28;8785;-79
2022/02/23 06:10:10;;;;;;;;;5.00;4.00;;;;;;;;5119793;28;8968;-79
2022/02/23 06:12:35;;;;;;;;;4.00;4.00;;;;;;;;5119933;28;9445;-78
2022/02/23 06:15:00;;;;;;;;;5.75;4.00;;;;;;;;5119990;28;8796;-77
2022/02/23 06:17:26;;;;;;;;;9.50;6.75;;;;;;;;5119747;28;9599;-76
2022/02/23 06:19:52;;;;;;;;;5.33;4.00;;;;;;;;5118420;28;11529;-78
2022/02/23 06:22:17;;;;;;;;;6.33;6.00;;;;;;;;5119387;28;11364;-77
2022/02/23 06:24:43;;;;;;;;;7.33;6.00;;;;;;;;5120570;28;8872;-75
2022/02/23 06:27:09;;;;;;;;;5.00;5.00;;;;;;;;5101217;28;8832;-77
2022/02/23 06:29:35;;;;;;;;;3.50;3.50;;;;;;;;5120103;28;10398;-77
2022/02/23 06:32:04;;;;;;;;;5.50;4.00;;;;;;;;5120279;28;11462;-76
2022/02/23 06:34:30;;;;;;;;;7.00;5.00;;;;;;;;5119815;28;12029;-80
2022/02/23 06:36:55;;;;;;;;;6.25;6.25;;;;;;;;5130979;27;11419;-76
2022/02/23 06:39:21;;;;;;;;;6.00;6.00;;;;;;;;5137682;27;11287;-77
2022/02/23 06:41:47;;;;;;;;;8.00;6.00;;;;;;;;5137921;27;9710;-76
2022/02/23 06:44:12;;;;;;;;;23.25;22.25;;;;;;;;5137309;27;8762;-78
2022/02/23 06:46:38;;;;;;;;;9.00;6.75;;;;;;;;5137455;27;23865;-76
2022/02/23 06:49:03;;;;;;;;;6.00;6.00;;;;;;;;5136964;27;22443;-77
2022/02/23 06:51:28;;;;;;;;;9.50;4.50;;;;;;;;5138542;27;11375;-74
2022/02/23 06:53:53;;;;;;;;;8.00;7.00;;;;;;;;5138610;27;11332;-74
2022/02/23 06:56:21;;;;;;;;;9.00;9.00;;;;;;;;5139904;27;11717;-75
2022/02/23 06:58:49;;;;;;;;;2.50;2.50;;;;;;;;5121511;27;9248;-77
2022/02/23 07:01:18;;;;;;;;;12.75;7.00;;;;;;;;5139645;27;11556;-76
2022/02/23 07:03:45;;;;;;;;;9.00;9.00;;;;;;;;5139716;27;21722;-74
2022/02/23 07:06:10;;;;;;;;;10.00;7.50;;;;;;;;5139009;27;22891;-77
2022/02/23 07:08:37;;;;;;;;;7.00;7.00;;;;;;;;5138630;27;21814;-80
2022/02/23 07:11:02;;;;;;;;;6.50;6.00;;;;;;;;5118953;27;21422;-78
2022/02/23 07:13:28;;;;;;;;;9.00;7.50;;;;;;;;5119947;28;10686;-82
2022/02/23 07:15:53;;;;;;;;;6.00;6.00;;;;;;;;5118983;28;11495;-76
2022/02/23 07:18:22;;;;;;;;;7.00;6.00;;;;;;;;5120009;28;12380;-79
2022/02/23 07:20:47;;;;;;;;;5.33;5.33;;;;;;;;5118130;28;9552;-79
2022/02/23 07:23:12;;;;;;;;;6.00;6.00;;;;;;;;5100238;28;12097;-79
2022/02/23 07:25:37;;;;;;;;;4.67;4.67;;;;;;;;5118716;28;11314;-77
2022/02/23 07:28:04;;;;;;;;;5.00;3.50;;;;;;;;5118705;28;11504;-78
2022/02/23 07:30:31;;;;;;;;;6.33;4.67;;;;;;;;5100321;28;14813;-78
2022/02/23 07:32:57;;;;;;;;;6.50;6.50;;;;;;;;5117150;28;11740;-78
2022/02/23 07:35:22;;;;;;;;;9.00;6.75;;;;;;;;5118678;28;10547;-81
2022/02/23 07:37:50;;;;;;;;;6.25;6.25;;;;;;;;5118978;28;12037;-79
2022/02/23 07:40:19;;;;;;;;;10.00;7.00;;;;;;;;5116093;28;10418;-78
2022/02/23 07:42:45;;;;;;;;;4.00;4.00;;;;;;;;5117482;28;21879;-83
2022/02/23 07:45:10;;;;;;;;;6.67;6.67;;;;;;;;5118329;28;21713;-81
2022/02/23 07:47:36;;;;;;;;;10.00;9.00;;;;;;;;5117837;28;11705;-83
2022/02/23 07:50:05;;;;;;;;;12.50;10.00;;;;;;;;5117159;28;21978;-80
2022/02/23 07:52:30;;;;;;;;;11.25;11.00;;;;;;;;5118453;28;21532;-88
2022/02/23 07:54:56;;;;;;;;;13.50;12.75;;;;;;;;5102292;28;12762;-85
2022/02/23 07:57:21;;;;;;;;;15.50;15.00;;;;;;;;5103327;28;13587;-83
2022/02/23 07:59:46;;;;;;;;;21.00;13.67;;;;;;;;5106545;28;12053;-91
2022/02/23 08:02:14;;;;;;;;;16.00;15.00;;;;;;;;5103626;28;15437;-89
2022/02/23 08:04:40;;;;;;;;;16.67;14.00;;;;;;;;5103994;28;13556;-82
2022/02/23 08:07:05;;;;;;;;;15.00;13.33;;;;;;;;5102247;28;9810;-86
2022/02/23 08:09:30;;;;;;;;;12.67;12.67;;;;;;;;5101687;28;12471;-81
2022/02/23 08:11:56;;;;;;;;;15.50;13.75;;;;;;;;5100824;28;11405;-78
2022/02/23 08:14:21;;;;;;;;;15.25;14.25;;;;;;;;5100702;28;11388;-83
2022/02/23 08:19:37;;;;;;;;;14.25;14.25;;;;;;;;5100777;28;12520;-85
2022/02/23 08:22:06;;;;;;;;;16.25;15.75;;;;;;;;5117905;27;12819;-85
2022/02/23 08:24:33;;;;;;;;;14.50;13.50;;;;;;;;5128618;27;12053;-85
2022/02/23 08:26:59;;;;;;;;;18.25;18.00;;;;;;;;5129573;27;11442;-86
2022/02/23 08:29:25;;;;;;;;;18.00;16.00;;;;;;;;5111064;27;12124;-85
2022/02/23 08:31:50;;;;;;;;;22.25;18.75;;;;;;;;5128845;27;10060;-85
2022/02/23 08:34:17;;;;;;;;;15.75;13.50;;;;;;;;5129869;27;13374;-86
2022/02/23 08:36:42;;;;;;;;;18.75;17.75;;;;;;;;5131661;27;13802;-86
2022/02/23 08:39:08;;;;;;;;;22.50;21.25;;;;;;;;5130096;27;11464;-87
2022/02/23 08:41:34;;;;;;;;;20.00;18.75;;;;;;;;5129774;27;12197;-87
2022/02/23 08:44:00;;;;;;;;;23.25;19.25;;;;;;;;5129516;27;11565;-80
2022/02/23 08:46:26;;;;;;;;;21.25;21.25;;;;;;;;5129963;27;10492;-85
2022/02/23 08:48:52;;;;;;;;;23.25;21.75;;;;;;;;5130162;27;11499;-83
2022/02/23 08:51:18;;;;;;;;;21.50;16.75;;;;;;;;5131177;27;10951;-83
2022/02/23 08:53:43;;;;;;;;;34.67;34.33;;;;;;;;5130577;27;11828;-84
2022/02/23 08:56:08;;;;;;;;;43.00;34.33;;;;;;;;5129221;27;12494;-83
2022/02/23 08:58:34;;;;;;;;;25.00;23.67;;;;;;;;5131535;27;11244;-83
2022/02/23 09:00:59;;;;;;;;;30.33;27.33;;;;;;;;5127817;27;13569;-82
2022/02/23 09:03:26;;;;;;;;;33.00;29.67;;;;;;;;5129086;27;13611;-82
2022/02/23 09:05:51;;;;;;;;;23.33;22.00;;;;;;;;5113336;27;12115;-80
2022/02/23 09:08:17;;;;;;;;;17.67;17.00;;;;;;;;5129810;27;13222;-80
2022/02/23 09:10:42;;;;;;;;;17.33;15.33;;;;;;;;5130100;27;12155;-79
2022/02/23 09:13:08;;;;;;;;;19.33;17.33;;;;;;;;5130798;27;10313;-82
2022/02/23 09:15:34;;;;;;;;;26.67;25.67;;;;;;;;5135809;27;8789;-80
2022/02/23 09:18:00;;;;;;;;;33.33;31.00;;;;;;;;5128709;27;13734;-81
2022/02/23 09:20:26;;;;;;;;;25.00;19.33;;;;;;;;5132588;27;13239;-81
2022/02/23 09:22:51;;;;;;;;;18.25;16.25;;;;;;;;5116495;27;13881;-78
2022/02/23 09:25:16;;;;;;;;;19.00;14.75;;;;;;;;5121259;27;15088;-77
2022/02/23 09:27:42;;;;;;;;;20.25;15.00;;;;;;;;5140064;27;10310;-78
2022/02/23 09:30:08;;;;;;;;;13.25;13.25;;;;;;;;5121422;27;14226;-76
2022/02/23 09:32:33;;;;;;;;;16.00;15.75;;;;;;;;5138626;27;13594;-78
2022/02/23 09:34:58;;;;;;;;;17.00;17.00;;;;;;;;5139878;27;11443;-76
2022/02/23 09:37:24;;;;;;;;;21.00;17.75;;;;;;;;5139967;27;11373;-77
2022/02/23 09:39:49;;;;;;;;;17.50;17.50;;;;;;;;5139559;27;13221;-77
2022/02/23 09:42:15;;;;;;;;;20.50;20.50;;;;;;;;5131037;27;13394;-77
2022/02/23 09:44:41;;;;;;;;;19.50;17.50;;;;;;;;5118734;28;11055;-77
2022/02/23 09:47:06;;;;;;;;;19.00;18.00;;;;;;;;5118920;28;12131;-77
2022/02/23 09:49:32;;;;;;;;;17.25;17.00;;;;;;;;5118168;28;10659;-77
2022/02/23 09:51:57;;;;;;;;;16.33;16.33;;;;;;;;5118939;28;10571;-76
2022/02/23 09:54:22;;;;;;;;;19.00;18.33;;;;;;;;5118906;28;12062;-76
2022/02/23 09:56:48;;;;;;;;;18.33;17.33;;;;;;;;5118456;28;10314;-76
2022/02/23 09:59:13;;;;;;;;;18.00;18.00;;;;;;;;5118556;28;11422;-77
2022/02/23 10:01:40;;;;;;;;;19.00;18.33;;;;;;;;5097977;28;12852;-79
2022/02/23 10:04:07;;;;;;;;;15.75;15.75;;;;;;;;5116626;28;11796;-79
2022/02/23 10:06:33;;;;;;;;;16.00;15.75;;;;;;;;5117371;28;10543;-80
2022/02/23 10:09:03;;;;;;;;;17.25;16.75;;;;;;;;5118828;28;9454;-78
2022/02/23 10:11:29;;;;;;;;;16.75;16.50;;;;;;;;5116389;28;10402;-80
2022/02/23 10:13:56;;;;;;;;;18.67;17.00;;;;;;;;5118539;28;11361;-81
2022/02/23 10:16:25;;;;;;;;;17.50;17.00;;;;;;;;5118931;28;12648;-78
2022/02/23 10:18:50;;;;;;;;;17.75;16.75;;;;;;;;5117852;28;9395;-80
2022/02/23 10:21:18;;;;;;;;;14.67;14.00;;;;;;;;5099408;28;10781;-86
2022/02/23 10:23:44;;;;;;;;;14.80;13.40;;;;;;;;5119180;28;13063;-78
2022/02/23 10:26:12;;;;;;;;;16.00;15.50;;;;;;;;5100033;28;13134;-83
2022/02/23 10:28:39;;;;;;;;;14.80;14.60;;;;;;;;5118544;28;11960;-80
2022/02/23 10:31:07;;;;;;;;;15.00;13.40;;;;;;;;5119114;28;11509;-82
2022/02/23 10:33:37;;;;;;;;;14.00;13.00;;;;;;;;5129539;27;12293;-79
2022/02/23 10:36:05;;;;;;;;;17.00;15.80;;;;;;;;5138690;27;11975;-82
2022/02/23 10:38:33;;;;;;;;;14.40;14.40;;;;;;;;5141896;27;11731;-85
2022/02/23 10:41:01;;;;;;;;;14.40;13.60;;;;;;;;5139603;27;13073;-86
2022/02/23 10:43:27;;;;;;;;;13.20;13.00;;;;;;;;5139905;27;9413;-81
2022/02/23 10:46:01;;;;;;;;;13.20;13.20;;;;;;;;5139106;27;11662;-87
2022/02/23 10:48:31;;;;;;;;;12.40;12.00;;;;;;;;5141310;27;8782;-84
2022/02/23 10:50:56;;;;;;;;;12.40;12.00;;;;;;;;5120705;27;13490;-83
2022/02/23 10:53:26;;;;;;;;;11.75;11.75;;;;;;;;5121611;27;8824;-84
2022/02/23 10:55:51;;;;;;;;;11.80;11.20;;;;;;;;5139621;27;11495;-85
2022/02/23 10:58:16;;;;;;;;;11.75;11.75;;;;;;;;5140106;27;8844;-84
2022/02/23 11:00:44;;;;;;;;;11.00;11.00;;;;;;;;5138134;27;8925;-84
2022/02/23 11:03:10;;;;;;;;;11.80;10.00;;;;;;;;5140695;27;8803;-85
2022/02/23 11:05:36;;;;;;;;;11.00;10.40;;;;;;;;5139886;27;10861;-83
2022/02/23 11:08:04;;;;;;;;;11.80;11.40;;;;;;;;5135060;27;9497;-79
2022/02/23 11:10:30;;;;;;;;;11.20;9.40;;;;;;;;5119514;27;11711;-82
2022/02/23 11:12:56;;;;;;;;;10.50;10.25;;;;;;;;5137454;27;21383;-83
2022/02/23 11:15:22;;;;;;;;;9.80;9.80;;;;;;;;5134790;27;21654;-80
2022/02/23 11:17:49;;;;;;;;;9.60;9.60;;;;;;;;5138001;27;23986;-79
2022/02/23 11:20:22;;;;;;;;;10.20;10.20;;;;;;;;5142152;27;9023;-87
2022/02/23 11:22:50;;;;;;;;;9.80;9.80;;;;;;;;5132155;27;22425;-78
2022/02/23 11:25:15;;;;;;;;;12.50;12.50;;;;;;;;5137466;27;22455;-79
2022/02/23 11:27:44;;;;;;;;;13.67;13.00;;;;;;;;5135931;27;23064;-78
2022/02/23 11:30:13;;;;;;;;;12.50;10.00;;;;;;;;5139123;27;11542;-83
2022/02/23 11:32:39;;;;;;;;;6.25;6.25;;;;;;;;5141033;27;11753;-79
2022/02/23 11:35:06;;;;;;;;;5.75;5.75;;;;;;;;5141246;27;22242;-78
2022/02/23 11:37:33;;;;;;;;;9.00;9.00;;;;;;;;5133868;27;10346;-77
2022/02/23 11:39:58;;;;;;;;;9.00;9.00;;;;;;;;5140700;27;11570;-79
2022/02/23 11:42:23;;;;;;;;;11.25;10.25;;;;;;;;5117578;27;9385;-84
2022/02/23 11:44:50;;;;;;;;;11.75;10.50;;;;;;;;5123770;27;22860;-83
2022/02/23 11:47:21;;;;;;;;;8.75;8.75;;;;;;;;5145440;27;8897;-78
2022/02/23 11:49:49;;;;;;;;;12.50;11.00;;;;;;;;5136384;27;22450;-81
2022/02/23 11:52:15;;;;;;;;;9.75;9.75;;;;;;;;5141965;27;22375;-82
2022/02/23 11:55:03;;;;;;;;;8.00;8.00;;;;;;;;5141595;27;22472;-81
2022/02/23 11:57:39;;;;;;;;;10.50;10.00;;;;;;;;5138728;27;11397;-83
2022/02/23 12:00:06;;;;;;;;;11.25;10.00;;;;;;;;5133750;27;22432;-85
2022/02/23 12:02:32;;;;;;;;;10.00;9.00;;;;;;;;5142906;27;10588;-81
2022/02/23 12:04:59;;;;;;;;;11.75;8.75;;;;;;;;5141453;27;21579;-82
2022/02/23 12:07:25;;;;;;;;;8.25;7.75;;;;;;;;5134613;27;10590;-82
2022/02/23 12:09:55;;;;;;;;;8.75;7.75;;;;;;;;5140434;27;22799;-81
2022/02/23 12:12:39;;;;;;;;;10.00;10.00;;;;;;;;5141082;27;8783;-76
2022/02/23 12:15:09;;;;;;;;;10.50;9.00;;;;;;;;5134779;27;23652;-77
2022/02/23 12:17:45;;;;;;;;;11.00;10.25;;;;;;;;5139593;27;21486;-79
2022/02/23 12:20:29;;;;;;;;;2.75;2.75;;;;;;;;5116585;27;23722;-80
2022/02/23 12:23:08;;;;;;;;;7.00;6.00;;;;;;;;5131757;27;23553;-83
2022/02/23 12:25:50;;;;;;;;;6.75;6.75;;;;;;;;5137978;27;11393;-80
2022/02/23 12:28:16;;;;;;;;;21.25;21.00;;;;;;;;5132079;27;11412;-84
2022/02/23 12:30:47;;;;;;;;;8.75;8.75;;;;;;;;5139778;27;23178;-82
2022/02/23 12:33:16;;;;;;;;;13.25;13.25;;;;;;;;5139504;27;23183;-80
2022/02/23 12:35:45;;;;;;;;;8.00;7.25;;;;;;;;5139905;27;22414;-80
2022/02/23 12:38:11;;;;;;;;;9.00;9.00;;;;;;;;5140736;27;24087;-80
2022/02/23 12:40:37;;;;;;;;;14.00;13.00;;;;;;;;5141026;27;12450;-80
2022/02/23 12:43:03;;;;;;;;;10.25;10.25;;;;;;;;5141641;27;23420;-85
2022/02/23 12:45:28;;;;;;;;;11.00;8.50;;;;;;;;5142265;27;11741;-82
2022/02/23 12:47:54;;;;;;;;;14.00;10.75;;;;;;;;5142373;27;21309;-82
2022/02/23 12:50:24;;;;;;;;;13.50;9.25;;;;;;;;5143796;27;21508;-87
2022/02/23 12:52:50;;;;;;;;;10.00;9.00;;;;;;;;5124341;27;24319;-87
2022/02/23 12:55:18;;;;;;;;;9.75;8.00;;;;;;;;5123694;27;12396;-89
2022/02/23 12:57:44;;;;;;;;;6.75;5.00;;;;;;;;5142157;27;21775;-90
2022/02/23 13:00:10;;;;;;;;;7.75;6.00;;;;;;;;5106979;27;11376;-91
2022/02/23 13:02:35;;;;;;;;;8.00;8.00;;;;;;;;5143678;27;8883;-88
2022/02/23 13:05:00;;;;;;;;;5.75;5.75;;;;;;;;5142951;27;10495;-86
2022/02/23 13:07:25;;;;;;;;;6.25;4.75;;;;;;;;5142297;27;11346;-81
2022/02/23 13:09:51;;;;;;;;;7.75;6.00;;;;;;;;5141391;27;9495;-82
2022/02/23 13:12:17;;;;;;;;;6.00;5.25;;;;;;;;5140705;27;11358;-82
2022/02/23 13:14:43;;;;;;;;;13.25;9.00;;;;;;;;5140914;27;11386;-83
2022/02/23 13:17:10;;;;;;;;;14.00;14.00;;;;;;;;5128131;27;22804;-83
2022/02/23 13:19:38;;;;;;;;;11.00;9.75;;;;;;;;5119356;27;21640;-85
2022/02/23 13:22:05;;;;;;;;;12.00;11.25;;;;;;;;5119076;28;24002;-83
2022/02/23 13:24:30;;;;;;;;;11.75;11.25;;;;;;;;5120012;28;21495;-77
2022/02/23 13:26:56;;;;;;;;;4.25;4.25;;;;;;;;5120407;28;11408;-79
2022/02/23 13:29:25;;;;;;;;;6.75;6.75;;;;;;;;5119597;28;22271;-79
2022/02/23 13:32:00;;;;;;;;;4.50;4.00;;;;;;;;5120291;28;10353;-81
2022/02/23 13:34:41;;;;;;;;;5.25;4.00;;;;;;;;5120789;28;11402;-80
2022/02/23 13:37:07;;;;;;;;;4.00;3.00;;;;;;;;5120082;28;12363;-84
2022/02/23 13:39:34;;;;;;;;;5.50;3.75;;;;;;;;5119672;28;11409;-84
2022/02/23 13:42:01;;;;;;;;;5.25;5.00;;;;;;;;5118685;28;11420;-82
2022/02/23 13:44:30;;;;;;;;;6.00;6.00;;;;;;;;5120231;28;11434;-84
2022/02/23 13:47:04;;;;;;;;;9.00;6.00;;;;;;;;5119603;28;11346;-83
2022/02/23 13:49:29;;;;;;;;;7.00;6.75;;;;;;;;5118924;28;12107;-84
2022/02/23 13:51:56;;;;;;;;;9.75;8.00;;;;;;;;5117285;28;11393;-85
2022/02/23 13:54:21;;;;;;;;;10.00;8.25;;;;;;;;5101638;28;13605;-85
2022/02/23 13:56:47;;;;;;;;;8.50;8.00;;;;;;;;5100859;28;22175;-85
2022/02/23 13:59:17;;;;;;;;;10.50;6.25;;;;;;;;5119356;28;21992;-85
2022/02/23 14:02:02;;;;;;;;;6.00;5.50;;;;;;;;5119585;28;21597;-89
2022/02/23 14:04:38;;;;;;;;;8.00;6.25;;;;;;;;5100909;28;23547;-87
2022/02/23 14:07:04;;;;;;;;;8.50;8.50;;;;;;;;5120273;28;11602;-87
2022/02/23 14:09:29;;;;;;;;;7.00;5.50;;;;;;;;5121179;28;11356;-86
2022/02/23 14:11:58;;;;;;;;;5.75;5.75;;;;;;;;5121062;28;10277;-89
2022/02/23 14:14:25;;;;;;;;;6.50;6.50;;;;;;;;5120981;28;11402;-84
2022/02/23 14:16:51;;;;;;;;;7.25;7.00;;;;;;;;5119331;28;11952;-83
2022/02/23 14:19:22;;;;;;;;;9.25;9.25;;;;;;;;5118076;28;11538;-82
2022/02/23 14:21:57;;;;;;;;;6.25;6.00;;;;;;;;5120340;28;12878;-82
2022/02/23 14:24:25;;;;;;;;;8.25;7.00;;;;;;;;5118191;28;11417;-83
2022/02/23 14:26:54;;;;;;;;;5.00;5.00;;;;;;;;5117648;28;11453;-82
2022/02/23 14:29:24;;;;;;;;;7.25;5.25;;;;;;;;5118894;28;12297;-83
2022/02/23 14:31:54;;;;;;;;;10.50;8.00;;;;;;;;5118778;28;12456;-83
2022/02/23 14:34:27;;;;;;;;;8.25;7.00;;;;;;;;5118750;28;21606;-83
2022/02/23 14:36:54;;;;;;;;;7.50;7.00;;;;;;;;5117121;28;21742;-83